Time;durP1;ratioP1;P1;durP2;ratioP2;P2;SDS_P1;SDS_P2;PMS_P1;PMS_P2;Temp;Humidity;BMP_temperature;BMP_pressure;BME280_temperature;BME280_humidity;BME280_pressure;Samples;Min_cycle;Max_cycle;Signal;HPM_P1;HPM_P2
2021/07/09 00:01:11;;;;;;;10.50;8.50;;;;;;;;;;5014206;28;20087;-83
2021/07/09 00:03:37;;;;;;;12.68;8.48;;;;;;;;;;5024438;28;20025;-83
2021/07/09 00:06:03;;;;;;;10.50;9.05;;;;;;;;;;5014803;28;20056;-83
2021/07/09 00:08:28;;;;;;;10.10;8.30;;;;;;;;;;4996825;28;20100;-84
2021/07/09 00:10:54;;;;;;;9.57;7.95;;;;;;;;;;5012671;28;20037;-83
2021/07/09 00:13:19;;;;;;;8.25;6.82;;;;;;;;;;5007692;28;20026;-83
2021/07/09 00:15:45;;;;;;;7.78;6.47;;;;;;;;;;4989816;28;20029;-83
2021/07/09 00:18:10;;;;;;;8.05;6.30;;;;;;;;;;5014304;28;20104;-83
2021/07/09 00:20:36;;;;;;;7.30;6.28;;;;;;;;;;5012939;28;20076;-83
2021/07/09 00:23:02;;;;;;;7.82;6.05;;;;;;;;;;5013821;28;20107;-83
2021/07/09 00:25:27;;;;;;;8.45;6.60;;;;;;;;;;4995183;28;20035;-83
2021/07/09 00:27:52;;;;;;;7.95;5.90;;;;;;;;;;5012482;28;20474;-83
2021/07/09 00:30:18;;;;;;;8.68;6.75;;;;;;;;;;5015140;28;20101;-83
2021/07/09 00:32:43;;;;;;;8.75;6.07;;;;;;;;;;5014081;28;20469;-83
2021/07/09 00:35:09;;;;;;;9.38;7.03;;;;;;;;;;5012579;28;20029;-83
2021/07/09 00:37:35;;;;;;;8.13;6.80;;;;;;;;;;5030871;28;20026;-83
2021/07/09 00:40:04;;;;;;;10.80;6.82;;;;;;;;;;5013304;28;20028;-83
2021/07/09 00:42:29;;;;;;;8.65;6.00;;;;;;;;;;5012204;28;20393;-83
2021/07/09 00:44:54;;;;;;;8.32;5.78;;;;;;;;;;4995441;28;20030;-83
2021/07/09 00:47:21;;;;;;;8.48;5.97;;;;;;;;;;4982392;28;20038;-83
2021/07/09 00:49:48;;;;;;;8.55;6.40;;;;;;;;;;4998806;28;20041;-83
2021/07/09 00:52:15;;;;;;;11.77;6.80;;;;;;;;;;5028272;28;20116;-83
2021/07/09 00:54:40;;;;;;;8.90;6.68;;;;;;;;;;5016955;28;20113;-83
2021/07/09 00:57:07;;;;;;;11.05;5.88;;;;;;;;;;5001692;28;20065;-83
2021/07/09 00:59:32;;;;;;;7.95;5.85;;;;;;;;;;5015390;28;20030;-83
2021/07/09 01:01:59;;;;;;;8.05;5.78;;;;;;;;;;5013992;28;20025;-83
2021/07/09 01:04:25;;;;;;;8.48;6.20;;;;;;;;;;5013551;28;20029;-83
2021/07/09 01:06:50;;;;;;;7.82;6.10;;;;;;;;;;5029684;28;20098;-83
2021/07/09 01:09:16;;;;;;;9.13;6.20;;;;;;;;;;4999237;28;20038;-83
2021/07/09 01:11:45;;;;;;;8.15;5.88;;;;;;;;;;5015193;28;20029;-83
2021/07/09 01:14:10;;;;;;;7.70;6.22;;;;;;;;;;5012619;28;20058;-83
2021/07/09 01:16:36;;;;;;;8.45;6.05;;;;;;;;;;5016014;28;20033;-83
2021/07/09 01:19:07;;;;;;;9.55;6.63;;;;;;;;;;5030895;28;20025;-83
2021/07/09 01:21:33;;;;;;;10.73;6.55;;;;;;;;;;5014534;28;20057;-83
2021/07/09 01:24:01;;;;;;;8.70;6.20;;;;;;;;;;5017018;28;20030;-83
2021/07/09 01:26:27;;;;;;;10.32;6.43;;;;;;;;;;5017190;28;20485;-83
2021/07/09 01:28:53;;;;;;;8.95;6.55;;;;;;;;;;5017860;28;20025;-83
2021/07/09 01:31:18;;;;;;;9.10;6.47;;;;;;;;;;5017149;28;20504;-83
2021/07/09 01:33:44;;;;;;;9.93;7.60;;;;;;;;;;5020205;28;20033;-83
2021/07/09 01:36:09;;;;;;;9.88;6.90;;;;;;;;;;5016582;28;20040;-83
2021/07/09 01:38:35;;;;;;;8.23;6.35;;;;;;;;;;5029223;28;20116;-83
2021/07/09 01:41:00;;;;;;;8.63;6.45;;;;;;;;;;5002933;28;20041;-83
2021/07/09 01:43:26;;;;;;;8.68;6.82;;;;;;;;;;5016578;28;20038;-83
2021/07/09 01:45:52;;;;;;;10.02;6.70;;;;;;;;;;5000109;28;20034;-84
2021/07/09 01:48:18;;;;;;;8.05;6.35;;;;;;;;;;5034113;28;20031;-83
2021/07/09 01:50:44;;;;;;;8.90;6.20;;;;;;;;;;5032827;28;20389;-83
2021/07/09 01:53:09;;;;;;;9.75;6.43;;;;;;;;;;5018553;28;20026;-83
2021/07/09 01:55:35;;;;;;;9.70;6.65;;;;;;;;;;5015028;28;20099;-83
2021/07/09 01:58:00;;;;;;;9.23;6.68;;;;;;;;;;4980833;28;20528;-83
2021/07/09 02:00:26;;;;;;;8.90;6.35;;;;;;;;;;5018665;28;20527;-83
2021/07/09 02:02:53;;;;;;;9.02;6.30;;;;;;;;;;5031973;28;20378;-83
2021/07/09 02:05:21;;;;;;;9.27;6.80;;;;;;;;;;5014508;28;20034;-83
2021/07/09 02:07:49;;;;;;;8.93;7.10;;;;;;;;;;5035659;28;20034;-83
2021/07/09 02:10:17;;;;;;;7.50;5.70;;;;;;;;;;5018637;28;20025;-83
2021/07/09 02:12:43;;;;;;;8.48;6.28;;;;;;;;;;5016505;28;20038;-83
2021/07/09 02:15:13;;;;;;;9.35;6.82;;;;;;;;;;5015124;28;20030;-83
2021/07/09 02:17:39;;;;;;;8.02;5.85;;;;;;;;;;5020319;28;20052;-83
2021/07/09 02:20:07;;;;;;;10.73;7.22;;;;;;;;;;5011318;28;20090;-83
2021/07/09 02:22:32;;;;;;;9.02;6.55;;;;;;;;;;5018323;28;20034;-83
2021/07/09 02:24:59;;;;;;;9.77;7.03;;;;;;;;;;4996052;28;20057;-83
2021/07/09 02:27:24;;;;;;;9.80;6.63;;;;;;;;;;5001498;28;20037;-83
2021/07/09 02:29:53;;;;;;;9.18;6.93;;;;;;;;;;5016295;28;20034;-83
2021/07/09 02:32:19;;;;;;;9.18;6.70;;;;;;;;;;4995727;28;20039;-83
2021/07/09 02:34:44;;;;;;;9.00;7.22;;;;;;;;;;5034153;28;20117;-83
2021/07/09 02:37:11;;;;;;;8.32;6.35;;;;;;;;;;5018067;28;20068;-83
2021/07/09 02:39:40;;;;;;;8.95;6.47;;;;;;;;;;5017366;28;20037;-83
2021/07/09 02:42:06;;;;;;;10.95;7.82;;;;;;;;;;4986371;28;20052;-83
2021/07/09 02:44:31;;;;;;;11.05;7.63;;;;;;;;;;5016651;28;20026;-83
2021/07/09 02:46:57;;;;;;;10.85;8.70;;;;;;;;;;5013372;28;20535;-83
2021/07/09 02:49:23;;;;;;;12.50;8.50;;;;;;;;;;5032995;28;20030;-83
2021/07/09 02:51:48;;;;;;;11.65;8.13;;;;;;;;;;4983281;28;20062;-83
2021/07/09 02:54:14;;;;;;;13.02;8.30;;;;;;;;;;5001197;28;20049;-83
2021/07/09 02:56:39;;;;;;;11.90;8.57;;;;;;;;;;5016011;28;20124;-84
2021/07/09 02:59:05;;;;;;;12.48;8.68;;;;;;;;;;5014664;28;20026;-84
2021/07/09 03:01:31;;;;;;;13.95;9.15;;;;;;;;;;5015233;28;20113;-84
2021/07/09 03:03:57;;;;;;;10.82;8.02;;;;;;;;;;5009811;28;20030;-83
2021/07/09 03:06:23;;;;;;;10.82;7.65;;;;;;;;;;4986343;28;20042;-83
2021/07/09 03:08:49;;;;;;;13.05;8.18;;;;;;;;;;5024437;28;20080;-83
2021/07/09 03:11:15;;;;;;;9.55;7.13;;;;;;;;;;5015965;28;20441;-84
2021/07/09 03:13:41;;;;;;;11.48;7.55;;;;;;;;;;5011690;28;20030;-84
2021/07/09 03:16:06;;;;;;;9.40;6.95;;;;;;;;;;5012805;28;20045;-83
2021/07/09 03:18:31;;;;;;;11.48;7.68;;;;;;;;;;4991291;28;20113;-83
2021/07/09 03:20:57;;;;;;;10.73;7.65;;;;;;;;;;5016019;28;20392;-83
2021/07/09 03:23:24;;;;;;;11.60;7.38;;;;;;;;;;5013435;28;20030;-83
2021/07/09 03:25:49;;;;;;;11.07;7.43;;;;;;;;;;5014268;28;20068;-83
2021/07/09 03:28:15;;;;;;;10.75;7.72;;;;;;;;;;5032240;28;20030;-83
2021/07/09 03:30:42;;;;;;;12.60;8.05;;;;;;;;;;4999631;28;20034;-83
2021/07/09 03:33:07;;;;;;;13.02;8.35;;;;;;;;;;5028272;28;20120;-83
2021/07/09 03:35:33;;;;;;;13.90;8.60;;;;;;;;;;4998067;28;20069;-83
2021/07/09 03:37:58;;;;;;;12.95;7.82;;;;;;;;;;5011488;28;20030;-83
2021/07/09 03:40:24;;;;;;;10.57;7.25;;;;;;;;;;5011064;28;20030;-83
2021/07/09 03:42:49;;;;;;;11.02;7.75;;;;;;;;;;5013926;28;20038;-83
2021/07/09 03:45:15;;;;;;;13.32;8.95;;;;;;;;;;4979115;28;20034;-83
2021/07/09 03:47:40;;;;;;;12.73;7.85;;;;;;;;;;5007007;28;20482;-83
2021/07/09 03:50:06;;;;;;;10.75;7.53;;;;;;;;;;5033982;28;20033;-83
2021/07/09 03:52:32;;;;;;;11.23;7.63;;;;;;;;;;5036528;28;20064;-83
2021/07/09 03:54:57;;;;;;;11.60;8.40;;;;;;;;;;5019842;28;20049;-83
2021/07/09 03:57:23;;;;;;;12.73;8.25;;;;;;;;;;5021964;28;20473;-83
2021/07/09 03:59:48;;;;;;;13.13;8.23;;;;;;;;;;5032495;28;20448;-83
2021/07/09 04:02:13;;;;;;;13.95;9.13;;;;;;;;;;4996742;28;20033;-83
2021/07/09 04:04:40;;;;;;;11.88;8.80;;;;;;;;;;5016150;28;20034;-83
2021/07/09 04:07:06;;;;;;;13.40;8.52;;;;;;;;;;5001423;28;20034;-83
2021/07/09 04:09:31;;;;;;;11.38;7.82;;;;;;;;;;5009378;28;20392;-83
2021/07/09 04:11:57;;;;;;;11.65;7.53;;;;;;;;;;5013820;28;20498;-83
2021/07/09 04:14:22;;;;;;;12.10;7.78;;;;;;;;;;5014907;28;20033;-83
2021/07/09 04:16:48;;;;;;;13.13;8.13;;;;;;;;;;5000649;28;20056;-83
2021/07/09 04:19:13;;;;;;;11.93;8.30;;;;;;;;;;4995155;28;20116;-83
2021/07/09 04:21:39;;;;;;;12.95;8.25;;;;;;;;;;5016612;28;20025;-83
2021/07/09 04:24:05;;;;;;;12.00;9.07;;;;;;;;;;5016711;28;20111;-83
2021/07/09 04:26:30;;;;;;;12.20;8.75;;;;;;;;;;5028760;28;20101;-83
2021/07/09 04:28:56;;;;;;;13.23;9.00;;;;;;;;;;5029087;28;20037;-83
2021/07/09 04:31:21;;;;;;;12.80;8.50;;;;;;;;;;5012925;28;20042;-83
2021/07/09 04:33:50;;;;;;;12.70;8.35;;;;;;;;;;5009793;28;20040;-83
2021/07/09 04:36:16;;;;;;;12.82;8.30;;;;;;;;;;5030116;28;21722;-83
2021/07/09 04:38:43;;;;;;;16.50;9.73;;;;;;;;;;5014702;28;20461;-83
2021/07/09 04:41:08;;;;;;;13.07;9.15;;;;;;;;;;5030030;28;20121;-83
2021/07/09 04:43:34;;;;;;;13.18;8.90;;;;;;;;;;5011067;28;20547;-83
2021/07/09 04:45:59;;;;;;;13.35;8.43;;;;;;;;;;4998596;28;20026;-83
2021/07/09 04:48:25;;;;;;;11.95;8.27;;;;;;;;;;5013221;28;20026;-83
2021/07/09 04:50:50;;;;;;;12.30;8.00;;;;;;;;;;5001316;28;20508;-83
2021/07/09 04:53:15;;;;;;;12.95;9.10;;;;;;;;;;5009185;28;20318;-83
2021/07/09 04:55:41;;;;;;;15.60;10.50;;;;;;;;;;4994629;28;20056;-83
2021/07/09 04:58:06;;;;;;;15.15;10.50;;;;;;;;;;4983257;28;20044;-83
2021/07/09 05:00:32;;;;;;;17.63;11.40;;;;;;;;;;5017358;28;20470;-83
2021/07/09 05:02:58;;;;;;;19.00;11.52;;;;;;;;;;5020953;28;20026;-83
2021/07/09 05:05:24;;;;;;;16.15;10.60;;;;;;;;;;5018862;28;20061;-83
2021/07/09 05:07:49;;;;;;;16.42;10.63;;;;;;;;;;5002993;28;20022;-83
2021/07/09 05:10:15;;;;;;;16.52;11.70;;;;;;;;;;5016571;28;20055;-83
2021/07/09 05:12:41;;;;;;;17.58;11.32;;;;;;;;;;5016244;28;20128;-83
2021/07/09 05:15:07;;;;;;;18.63;11.73;;;;;;;;;;5029355;28;20045;-83
2021/07/09 05:17:33;;;;;;;17.92;12.30;;;;;;;;;;5021713;28;20084;-83
2021/07/09 05:19:58;;;;;;;18.45;12.50;;;;;;;;;;4995011;28;20026;-83
2021/07/09 05:22:23;;;;;;;19.40;12.68;;;;;;;;;;5008103;28;20061;-83
2021/07/09 05:24:54;;;;;;;19.33;12.80;;;;;;;;;;5009445;28;20026;-83
2021/07/09 05:27:24;;;;;;;18.60;11.85;;;;;;;;;;5002631;28;20088;-83
2021/07/09 05:29:49;;;;;;;20.23;12.48;;;;;;;;;;5016001;28;20494;-83
2021/07/09 05:32:22;;;;;;;15.88;11.05;;;;;;;;;;4981169;28;20041;-83
2021/07/09 05:34:48;;;;;;;16.92;11.40;;;;;;;;;;5013119;28;20080;-83
2021/07/09 05:37:14;;;;;;;21.05;12.30;;;;;;;;;;5026618;28;20401;-83
2021/07/09 05:39:39;;;;;;;15.73;10.88;;;;;;;;;;5018305;28;20022;-83
2021/07/09 05:42:05;;;;;;;16.98;11.18;;;;;;;;;;5018443;28;20030;-83
2021/07/09 05:44:30;;;;;;;18.40;11.55;;;;;;;;;;5017502;28;20040;-83
2021/07/09 05:46:57;;;;;;;18.50;11.60;;;;;;;;;;5010873;28;20034;-83
2021/07/09 05:49:23;;;;;;;19.55;11.85;;;;;;;;;;5002495;28;20034;-83
2021/07/09 05:51:48;;;;;;;16.95;11.75;;;;;;;;;;5017750;28;20118;-83
2021/07/09 05:54:14;;;;;;;19.95;12.38;;;;;;;;;;5034420;28;20045;-83
2021/07/09 05:56:39;;;;;;;15.73;10.27;;;;;;;;;;5000340;28;20062;-83
2021/07/09 05:59:05;;;;;;;18.85;12.07;;;;;;;;;;5016344;28;20034;-83
2021/07/09 06:01:30;;;;;;;16.67;11.35;;;;;;;;;;4997427;28;20034;-83
2021/07/09 06:03:55;;;;;;;18.60;12.15;;;;;;;;;;5002182;28;20061;-83
2021/07/09 06:06:21;;;;;;;20.02;12.85;;;;;;;;;;5015804;28;20042;-82
2021/07/09 06:08:46;;;;;;;18.17;11.98;;;;;;;;;;4993356;28;20121;-84
2021/07/09 06:11:12;;;;;;;18.25;12.63;;;;;;;;;;4993783;28;20057;-83
2021/07/09 06:13:37;;;;;;;19.30;12.43;;;;;;;;;;4998888;28;20112;-83
2021/07/09 06:16:04;;;;;;;19.92;12.35;;;;;;;;;;4990872;28;20057;-83
2021/07/09 06:18:29;;;;;;;17.80;12.30;;;;;;;;;;4999065;28;20049;-83
2021/07/09 06:20:54;;;;;;;18.85;12.68;;;;;;;;;;5032316;28;20022;-83
2021/07/09 06:23:20;;;;;;;19.85;12.43;;;;;;;;;;5032284;28;20176;-84
2021/07/09 06:25:45;;;;;;;18.10;11.80;;;;;;;;;;4982364;28;20030;-84
2021/07/09 06:28:11;;;;;;;18.13;12.20;;;;;;;;;;5023443;28;20060;-84
2021/07/09 06:30:37;;;;;;;18.55;12.13;;;;;;;;;;5011363;28;20113;-84
2021/07/09 06:33:03;;;;;;;15.02;10.82;;;;;;;;;;4997619;28;20040;-84
2021/07/09 06:35:29;;;;;;;16.77;11.82;;;;;;;;;;5010107;28;20481;-84
2021/07/09 06:37:58;;;;;;;18.45;12.35;;;;;;;;;;4999323;28;20092;-84
2021/07/09 06:40:24;;;;;;;17.92;12.18;;;;;;;;;;4988675;28;20413;-84
2021/07/09 06:42:51;;;;;;;18.13;11.90;;;;;;;;;;5016594;28;20018;-84
2021/07/09 06:45:17;;;;;;;16.77;11.60;;;;;;;;;;5014226;28;20382;-84
2021/07/09 06:47:42;;;;;;;18.98;12.38;;;;;;;;;;5008830;28;20057;-84
2021/07/09 06:50:08;;;;;;;15.57;10.48;;;;;;;;;;5011940;28;20026;-84
2021/07/09 06:52:33;;;;;;;18.20;10.95;;;;;;;;;;5014776;28;20030;-84
2021/07/09 06:54:59;;;;;;;15.15;10.63;;;;;;;;;;5013868;28;20508;-84
2021/07/09 06:57:25;;;;;;;14.20;10.07;;;;;;;;;;4997981;28;20034;-84
2021/07/09 06:59:50;;;;;;;15.88;10.95;;;;;;;;;;5010961;28;20050;-84
2021/07/09 07:02:15;;;;;;;16.15;10.85;;;;;;;;;;5011263;28;20041;-84
2021/07/09 07:04:41;;;;;;;14.38;9.45;;;;;;;;;;5015050;28;20029;-84
2021/07/09 07:07:07;;;;;;;18.45;11.80;;;;;;;;;;4997363;28;20030;-84
2021/07/09 07:09:32;;;;;;;14.80;9.88;;;;;;;;;;5011701;28;20035;-84
2021/07/09 07:12:02;;;;;;;15.18;10.68;;;;;;;;;;4996580;28;20034;-84
2021/07/09 07:14:28;;;;;;;15.15;10.43;;;;;;;;;;5014031;28;20036;-84
2021/07/09 07:16:54;;;;;;;14.30;10.48;;;;;;;;;;5013941;28;20573;-84
2021/07/09 07:19:20;;;;;;;15.07;10.60;;;;;;;;;;5010624;28;20045;-84
2021/07/09 07:21:45;;;;;;;14.75;9.63;;;;;;;;;;4997005;28;20041;-84
2021/07/09 07:24:11;;;;;;;13.75;9.57;;;;;;;;;;4997276;28;20413;-83
2021/07/09 07:26:36;;;;;;;14.68;9.45;;;;;;;;;;5013179;28;20056;-84
2021/07/09 07:29:02;;;;;;;12.88;9.38;;;;;;;;;;5011520;28;20061;-84
2021/07/09 07:31:28;;;;;;;12.07;8.73;;;;;;;;;;5027732;28;20026;-84
2021/07/09 07:33:53;;;;;;;11.98;8.35;;;;;;;;;;4977833;28;20440;-84
2021/07/09 07:36:19;;;;;;;14.55;9.35;;;;;;;;;;5011561;28;20044;-83
2021/07/09 07:38:45;;;;;;;12.35;8.30;;;;;;;;;;5011398;28;20053;-84
2021/07/09 07:41:12;;;;;;;11.70;8.15;;;;;;;;;;5008591;28;20543;-84
2021/07/09 07:43:37;;;;;;;11.82;7.43;;;;;;;;;;5027673;28;20049;-84
2021/07/09 07:46:03;;;;;;;7.60;5.75;;;;;;;;;;4999232;28;20037;-84
2021/07/09 07:48:28;;;;;;;11.88;7.05;;;;;;;;;;5010416;28;20034;-84
2021/07/09 07:50:54;;;;;;;11.93;5.85;;;;;;;;;;5007572;28;20731;-84
2021/07/09 07:53:19;;;;;;;9.63;6.72;;;;;;;;;;4991891;28;20028;-84
2021/07/09 07:55:45;;;;;;;11.15;7.05;;;;;;;;;;5010846;28;20382;-84
2021/07/09 07:58:11;;;;;;;10.55;5.75;;;;;;;;;;5011158;28;20033;-84
2021/07/09 08:00:36;;;;;;;9.00;5.60;;;;;;;;;;4990007;28;20054;-84
2021/07/09 08:03:02;;;;;;;11.13;6.03;;;;;;;;;;5001689;28;20397;-84
2021/07/09 08:05:28;;;;;;;10.23;6.13;;;;;;;;;;4995968;28;20034;-84
2021/07/09 08:07:54;;;;;;;7.72;5.50;;;;;;;;;;5014983;28;20025;-84
2021/07/09 08:10:19;;;;;;;8.85;6.40;;;;;;;;;;5013306;28;20030;-84
2021/07/09 08:12:45;;;;;;;12.05;7.40;;;;;;;;;;5013212;28;20041;-84
2021/07/09 08:15:10;;;;;;;10.68;7.35;;;;;;;;;;5009467;28;20474;-84
2021/07/09 08:17:36;;;;;;;12.10;7.10;;;;;;;;;;4989578;28;20030;-84
2021/07/09 08:20:03;;;;;;;12.63;8.20;;;;;;;;;;5013521;28;20018;-84
2021/07/09 08:22:29;;;;;;;11.63;8.30;;;;;;;;;;5013368;28;20037;-84
2021/07/09 08:24:54;;;;;;;10.65;7.45;;;;;;;;;;5013321;28;20037;-83
2021/07/09 08:27:19;;;;;;;11.82;7.80;;;;;;;;;;5011628;28;20084;-84
2021/07/09 08:29:45;;;;;;;13.98;8.32;;;;;;;;;;4995717;28;20084;-84
2021/07/09 08:32:10;;;;;;;11.82;8.63;;;;;;;;;;5011148;28;20034;-84
2021/07/09 08:34:37;;;;;;;14.23;9.40;;;;;;;;;;5009634;28;20030;-84
2021/07/09 08:37:03;;;;;;;12.65;8.95;;;;;;;;;;5011755;28;20474;-84
2021/07/09 08:39:28;;;;;;;12.73;8.35;;;;;;;;;;5028776;28;20121;-84
2021/07/09 08:41:55;;;;;;;12.35;8.48;;;;;;;;;;5006542;28;20672;-84
2021/07/09 08:44:21;;;;;;;14.30;8.57;;;;;;;;;;5010677;28;20025;-84
2021/07/09 08:46:47;;;;;;;15.50;10.38;;;;;;;;;;5025999;28;20121;-85
2021/07/09 08:49:15;;;;;;;13.98;10.55;;;;;;;;;;5024062;28;20025;-84
2021/07/09 08:51:41;;;;;;;17.55;13.07;;;;;;;;;;5008581;28;20046;-85
2021/07/09 08:54:14;;;;;;;16.08;12.75;;;;;;;;;;5005831;28;20057;-84
2021/07/09 08:56:40;;;;;;;17.90;13.52;;;;;;;;;;4995428;28;20037;-84
2021/07/09 08:59:05;;;;;;;18.90;14.10;;;;;;;;;;5021323;28;20026;-84
2021/07/09 09:01:45;;;;;;;18.30;13.57;;;;;;;;;;4989831;28;20037;-84
2021/07/09 09:04:11;;;;;;;17.85;13.45;;;;;;;;;;5021223;28;20049;-84
2021/07/09 09:06:36;;;;;;;18.75;13.98;;;;;;;;;;5026493;28;20052;-84
2021/07/09 09:09:14;;;;;;;19.50;14.93;;;;;;;;;;4986915;28;20489;-84
2021/07/09 09:11:40;;;;;;;20.55;16.13;;;;;;;;;;5010885;28;20030;-83
2021/07/09 09:14:22;;;;;;;20.38;14.95;;;;;;;;;;5009247;28;20034;-84
2021/07/09 09:16:47;;;;;;;27.35;16.70;;;;;;;;;;5002426;28;20034;-84
2021/07/09 09:19:19;;;;;;;21.02;16.67;;;;;;;;;;4988333;28;20064;-84
2021/07/09 09:21:44;;;;;;;24.15;16.67;;;;;;;;;;4994451;28;20029;-84
2021/07/09 09:24:10;;;;;;;21.50;17.33;;;;;;;;;;5006179;28;20463;-83
2021/07/09 09:26:41;;;;;;;22.73;17.77;;;;;;;;;;4986335;28;20386;-83
2021/07/09 09:29:31;;;;;;;24.40;17.40;;;;;;;;;;5010445;28;20034;-84
2021/07/09 09:31:58;;;;;;;22.65;17.23;;;;;;;;;;5009485;28;20688;-84
2021/07/09 09:34:49;;;;;;;23.80;18.52;;;;;;;;;;5025242;28;20486;-84
2021/07/09 09:37:28;;;;;;;23.33;18.42;;;;;;;;;;5008629;28;20484;-84
2021/07/09 09:39:54;;;;;;;20.65;17.20;;;;;;;;;;5003450;28;20397;-84
2021/07/09 09:42:22;;;;;;;22.30;17.85;;;;;;;;;;5007937;28;20038;-84
2021/07/09 09:44:50;;;;;;;23.00;17.83;;;;;;;;;;5014646;28;20025;-84
2021/07/09 09:47:21;;;;;;;21.08;17.08;;;;;;;;;;5016407;28;20038;-84
2021/07/09 09:49:52;;;;;;;21.88;16.25;;;;;;;;;;5031400;28;20026;-84
2021/07/09 09:52:44;;;;;;;21.88;16.42;;;;;;;;;;5012206;28;20049;-84
2021/07/09 09:55:12;;;;;;;19.77;15.93;;;;;;;;;;5008570;28;20041;-84
2021/07/09 09:57:39;;;;;;;22.60;17.77;;;;;;;;;;5030828;28;20022;-84
2021/07/09 10:00:10;;;;;;;23.33;16.77;;;;;;;;;;5014738;28;20421;-84
2021/07/09 10:02:36;;;;;;;20.98;16.33;;;;;;;;;;5028527;28;20030;-84
2021/07/09 10:05:05;;;;;;;19.92;15.45;;;;;;;;;;4992897;28;20105;-84
2021/07/09 10:07:35;;;;;;;18.65;14.80;;;;;;;;;;5012409;28;20068;-84
2021/07/09 10:10:03;;;;;;;18.65;13.00;;;;;;;;;;5016402;28;20030;-84
2021/07/09 10:12:30;;;;;;;16.33;12.77;;;;;;;;;;5040972;28;20037;-84
2021/07/09 10:14:56;;;;;;;19.45;14.52;;;;;;;;;;5008930;28;20041;-84
2021/07/09 10:17:25;;;;;;;21.65;14.85;;;;;;;;;;5015256;28;20025;-84
2021/07/09 10:19:53;;;;;;;20.55;13.73;;;;;;;;;;5006469;28;20021;-84
2021/07/09 10:22:19;;;;;;;18.83;14.10;;;;;;;;;;5014541;28;20037;-84
2021/07/09 10:24:49;;;;;;;17.17;12.32;;;;;;;;;;4997937;28;20045;-83
2021/07/09 10:27:18;;;;;;;18.52;12.82;;;;;;;;;;5014357;28;20022;-84
2021/07/09 10:29:46;;;;;;;17.63;12.85;;;;;;;;;;5029169;28;20034;-84
2021/07/09 10:32:12;;;;;;;16.85;12.25;;;;;;;;;;5009284;28;20021;-83
2021/07/09 10:34:39;;;;;;;16.13;12.20;;;;;;;;;;4995097;28;20133;-83
2021/07/09 10:37:21;;;;;;;14.50;11.27;;;;;;;;;;5014344;28;20022;-83
2021/07/09 10:40:02;;;;;;;14.07;10.90;;;;;;;;;;5001640;28;20042;-84
2021/07/09 10:42:39;;;;;;;16.35;11.65;;;;;;;;;;5011860;28;20042;-84
2021/07/09 10:45:28;;;;;;;15.15;12.13;;;;;;;;;;5021528;28;20026;-84
2021/07/09 10:48:06;;;;;;;15.82;12.02;;;;;;;;;;5008013;28;20049;-84
2021/07/09 10:50:50;;;;;;;14.07;11.75;;;;;;;;;;5014258;28;20032;-82
2021/07/09 10:53:18;;;;;;;15.77;11.35;;;;;;;;;;5023731;28;20041;-82
2021/07/09 10:55:47;;;;;;;13.95;10.77;;;;;;;;;;5012884;28;20050;-83
2021/07/09 10:58:19;;;;;;;16.38;11.98;;;;;;;;;;5013166;28;20026;-83
2021/07/09 11:01:00;;;;;;;16.58;12.40;;;;;;;;;;5013783;28;20107;-83
2021/07/09 11:03:37;;;;;;;18.45;12.77;;;;;;;;;;5020687;28;20026;-83
2021/07/09 11:06:30;;;;;;;13.98;10.68;;;;;;;;;;5016486;28;20037;-83
2021/07/09 11:08:56;;;;;;;13.18;10.25;;;;;;;;;;5033609;28;20478;-83
2021/07/09 11:11:43;;;;;;;13.63;10.65;;;;;;;;;;5032039;28;20045;-83
2021/07/09 11:14:13;;;;;;;14.52;10.98;;;;;;;;;;5007105;28;20030;-83
2021/07/09 11:16:43;;;;;;;14.60;11.30;;;;;;;;;;5018302;28;20034;-83
2021/07/09 11:19:15;;;;;;;13.13;10.50;;;;;;;;;;5024566;28;20026;-83
2021/07/09 11:21:41;;;;;;;15.07;10.05;;;;;;;;;;5018404;28;20064;-83
2021/07/09 11:24:27;;;;;;;13.75;11.13;;;;;;;;;;5009692;28;20429;-83
2021/07/09 11:26:53;;;;;;;16.50;10.43;;;;;;;;;;5031374;28;20034;-83
2021/07/09 11:29:29;;;;;;;14.93;11.50;;;;;;;;;;5032958;28;20412;-83
2021/07/09 11:32:04;;;;;;;14.32;11.23;;;;;;;;;;5014073;28;20034;-83
2021/07/09 11:34:32;;;;;;;14.43;11.07;;;;;;;;;;5016674;28;20032;-83
2021/07/09 11:37:07;;;;;;;17.90;11.70;;;;;;;;;;5033042;28;20508;-83
2021/07/09 11:39:36;;;;;;;16.73;12.68;;;;;;;;;;5017043;28;20055;-83
2021/07/09 11:42:09;;;;;;;19.25;14.07;;;;;;;;;;5016441;28;20053;-83
2021/07/09 11:44:47;;;;;;;18.35;14.50;;;;;;;;;;5012027;28;20049;-83
2021/07/09 11:47:32;;;;;;;19.63;14.52;;;;;;;;;;5012489;28;20030;-83
2021/07/09 11:50:02;;;;;;;20.40;15.32;;;;;;;;;;5014578;28;20096;-84
2021/07/09 11:52:33;;;;;;;19.42;13.98;;;;;;;;;;5006506;28;20034;-83
2021/07/09 11:55:01;;;;;;;19.25;14.75;;;;;;;;;;5002600;28;20072;-83
2021/07/09 11:57:30;;;;;;;17.15;13.52;;;;;;;;;;4998050;28;20053;-83
2021/07/09 11:59:57;;;;;;;17.77;13.10;;;;;;;;;;5008999;28;20046;-83
2021/07/09 12:02:24;;;;;;;18.80;13.85;;;;;;;;;;5024743;28;20037;-84
2021/07/09 12:04:54;;;;;;;18.92;13.55;;;;;;;;;;5003395;28;20030;-84
2021/07/09 12:07:30;;;;;;;17.98;12.75;;;;;;;;;;5023915;28;20065;-84
2021/07/09 12:09:57;;;;;;;18.15;13.77;;;;;;;;;;5023474;28;20041;-83
2021/07/09 12:12:25;;;;;;;20.77;13.57;;;;;;;;;;5018286;28;20104;-83
2021/07/09 12:14:54;;;;;;;24.77;14.75;;;;;;;;;;5023734;28;20627;-83
2021/07/09 12:17:21;;;;;;;18.23;13.63;;;;;;;;;;5007110;28;20528;-84
2021/07/09 12:19:52;;;;;;;20.25;14.77;;;;;;;;;;5023709;28;20030;-84
2021/07/09 12:22:23;;;;;;;25.13;16.08;;;;;;;;;;5024032;28;20033;-83
2021/07/09 12:24:50;;;;;;;22.75;15.68;;;;;;;;;;5008147;28;20033;-83
2021/07/09 12:27:16;;;;;;;21.20;15.82;;;;;;;;;;5005565;28;20121;-83
2021/07/09 12:29:41;;;;;;;17.75;14.32;;;;;;;;;;5026021;28;20134;-83
2021/07/09 12:32:08;;;;;;;18.60;13.93;;;;;;;;;;4999655;28;20042;-83
2021/07/09 12:34:33;;;;;;;19.60;14.32;;;;;;;;;;4994053;28;20124;-84
2021/07/09 12:37:03;;;;;;;17.52;12.80;;;;;;;;;;4987561;28;20116;-83
2021/07/09 12:39:28;;;;;;;20.83;14.52;;;;;;;;;;5007780;28;20034;-83
2021/07/09 12:41:54;;;;;;;21.75;15.98;;;;;;;;;;5007002;28;20041;-83
2021/07/09 12:44:20;;;;;;;19.70;14.98;;;;;;;;;;5007183;28;20064;-83
2021/07/09 12:46:46;;;;;;;18.75;14.25;;;;;;;;;;4992008;28;20033;-83
2021/07/09 12:49:13;;;;;;;17.40;13.48;;;;;;;;;;5008871;28;20025;-83
2021/07/09 12:51:43;;;;;;;17.73;15.38;;;;;;;;;;4996373;28;20041;-83
2021/07/09 12:54:17;;;;;;;19.23;16.77;;;;;;;;;;5013747;28;20180;-83
2021/07/09 12:57:04;;;;;;;18.70;16.13;;;;;;;;;;5012300;28;20083;-84
2021/07/09 12:59:30;;;;;;;18.35;16.30;;;;;;;;;;5010523;28;20050;-84
2021/07/09 13:02:07;;;;;;;19.42;16.40;;;;;;;;;;5007740;28;20026;-83
2021/07/09 13:04:44;;;;;;;21.23;16.08;;;;;;;;;;5012713;28;20609;-84
2021/07/09 13:07:28;;;;;;;21.08;16.67;;;;;;;;;;5024797;28;20037;-84
2021/07/09 13:09:53;;;;;;;20.98;17.00;;;;;;;;;;4979219;28;20061;-84
2021/07/09 13:12:30;;;;;;;22.58;16.98;;;;;;;;;;5028571;28;20068;-84
2021/07/09 13:15:02;;;;;;;18.67;15.45;;;;;;;;;;5021613;28;20021;-83
2021/07/09 13:17:28;;;;;;;20.55;15.30;;;;;;;;;;5014326;28;20057;-83
2021/07/09 13:20:11;;;;;;;18.40;15.43;;;;;;;;;;5001019;28;20033;-83
2021/07/09 13:22:44;;;;;;;;;;;;;;;;;;5017935;28;20111;-83
2021/07/09 13:25:15;;;;;;;23.23;18.05;;;;;;;;;;5035468;28;19913;-83
2021/07/09 13:27:42;;;;;;;22.30;18.40;;;;;;;;;;5011223;28;20081;-84
2021/07/09 13:30:09;;;;;;;19.67;16.83;;;;;;;;;;5002809;28;20091;-83
2021/07/09 13:32:39;;;;;;;21.10;18.10;;;;;;;;;;5018705;28;20033;-84
2021/07/09 13:35:10;;;;;;;18.95;16.92;;;;;;;;;;5018510;28;20042;-83
2021/07/09 13:37:42;;;;;;;20.48;16.92;;;;;;;;;;5035776;28;20030;-83
2021/07/09 13:40:09;;;;;;;20.63;18.23;;;;;;;;;;5019143;28;20029;-83
2021/07/09 13:42:37;;;;;;;21.33;17.88;;;;;;;;;;5020634;28;20030;-84
2021/07/09 13:45:05;;;;;;;18.30;15.95;;;;;;;;;;5012902;28;20029;-84
2021/07/09 13:47:31;;;;;;;18.38;16.15;;;;;;;;;;5011919;28;20025;-84
2021/07/09 13:49:56;;;;;;;15.10;12.77;;;;;;;;;;5002473;28;20034;-84
2021/07/09 13:52:22;;;;;;;15.30;11.65;;;;;;;;;;5020118;28;20079;-85
2021/07/09 13:54:48;;;;;;;13.77;11.85;;;;;;;;;;5016777;28;20050;-84
2021/07/09 13:57:13;;;;;;;14.75;12.13;;;;;;;;;;5017511;28;20486;-84
2021/07/09 13:59:38;;;;;;;14.50;13.00;;;;;;;;;;5014619;28;20362;-83
2021/07/09 14:02:04;;;;;;;21.50;13.35;;;;;;;;;;5016003;28;20037;-84
2021/07/09 14:04:29;;;;;;;16.60;14.48;;;;;;;;;;5014298;28;20026;-83
2021/07/09 14:06:55;;;;;;;17.83;15.55;;;;;;;;;;5002247;28;20038;-83
2021/07/09 14:09:20;;;;;;;17.92;14.18;;;;;;;;;;5018985;28;20038;-83
2021/07/09 14:11:46;;;;;;;16.88;14.18;;;;;;;;;;4985436;28;20137;-84
2021/07/09 14:14:11;;;;;;;17.00;14.80;;;;;;;;;;5018102;28;20145;-83
2021/07/09 14:16:36;;;;;;;15.35;13.07;;;;;;;;;;5018842;28;20498;-83
2021/07/09 14:19:02;;;;;;;14.40;12.38;;;;;;;;;;5017925;28;20124;-83
2021/07/09 14:21:27;;;;;;;16.48;12.52;;;;;;;;;;5002100;28;20038;-84
2021/07/09 14:23:53;;;;;;;14.18;11.50;;;;;;;;;;5002998;28;20084;-83
2021/07/09 14:26:18;;;;;;;17.73;13.88;;;;;;;;;;5017368;28;20037;-83
2021/07/09 14:28:44;;;;;;;16.00;13.88;;;;;;;;;;5001382;28;20026;-84